Time;durP1;ratioP1;P1;durP2;ratioP2;P2;SDS_P1;SDS_P2;PMS_P1;PMS_P2;Temp;Humidity;BMP_temperature;BMP_pressure;BME280_temperature;BME280_humidity;BME280_pressure;Samples;Min_cycle;Max_cycle;Signal;HPM_P1;HPM_P2
2022/11/09 00:00:48;;;;;;;6.27;0.40;;;10.90;99.90;;;;;;5030229;28;20357;-75
2022/11/09 00:03:14;;;;;;;8.93;1.13;;;10.90;99.90;;;;;;5050336;28;20283;-75
2022/11/09 00:05:40;;;;;;;2.13;0.47;;;10.90;99.90;;;;;;5040325;28;20330;-75
2022/11/09 00:08:07;;;;;;;1.73;0.43;;;10.90;99.90;;;;;;5046366;28;20322;-75
2022/11/09 00:10:34;;;;;;;5.60;0.60;;;10.90;99.90;;;;;;5031036;28;20090;-73
2022/11/09 00:13:00;;;;;;;5.63;0.60;;;10.80;99.90;;;;;;5057624;28;20290;-73
2022/11/09 00:15:25;;;;;;;7.90;1.50;;;10.80;99.90;;;;;;5046996;28;20321;-73
2022/11/09 00:17:51;;;;;;;5.27;0.67;;;10.80;99.90;;;;;;5042033;28;20311;-73
2022/11/09 00:20:17;;;;;;;5.17;1.03;;;10.80;99.90;;;;;;5041772;28;20407;-73
2022/11/09 00:22:47;;;;;;;6.23;0.80;;;10.80;99.90;;;;;;5028882;28;20501;-73
2022/11/09 00:25:13;;;;;;;7.73;0.87;;;10.70;99.90;;;;;;5047167;28;20050;-73
2022/11/09 00:27:39;;;;;;;4.30;0.60;;;10.70;99.90;;;;;;5043497;28;20619;-75
2022/11/09 00:30:06;;;;;;;3.10;0.87;;;10.70;99.90;;;;;;5046605;28;20056;-73
2022/11/09 00:32:31;;;;;;;3.50;0.67;;;10.70;99.90;;;;;;5048788;28;20123;-73
2022/11/09 00:34:57;;;;;;;4.63;0.80;;;10.70;99.90;;;;;;5030077;28;20385;-75
2022/11/09 00:37:23;;;;;;;6.87;0.80;;;10.70;99.90;;;;;;5035792;28;20106;-75
2022/11/09 00:39:49;;;;;;;4.53;1.00;;;10.60;99.90;;;;;;5045571;28;20500;-75
2022/11/09 00:42:14;;;;;;;4.43;1.00;;;10.60;99.90;;;;;;5051434;28;20045;-75
2022/11/09 00:44:40;;;;;;;2.57;0.80;;;10.60;99.90;;;;;;5046256;28;20076;-75
2022/11/09 00:47:06;;;;;;;4.87;1.50;;;10.70;99.90;;;;;;5040779;28;20076;-74
2022/11/09 00:49:32;;;;;;;7.43;2.23;;;10.70;99.90;;;;;;5056955;28;20036;-74
2022/11/09 00:51:57;;;;;;;6.17;2.00;;;10.70;99.90;;;;;;5034770;28;20390;-74
2022/11/09 00:54:23;;;;;;;7.77;1.60;;;10.80;99.90;;;;;;5050618;28;20055;-75
2022/11/09 00:56:49;;;;;;;6.50;1.80;;;10.80;99.90;;;;;;5017985;28;20407;-74
2022/11/09 00:59:15;;;;;;;6.77;2.00;;;10.80;99.90;;;;;;5040066;28;20044;-74
2022/11/09 01:01:40;;;;;;;3.77;2.20;;;10.90;99.90;;;;;;5019903;28;20049;-74
2022/11/09 01:04:06;;;;;;;5.47;2.13;;;10.90;99.90;;;;;;5033470;28;20474;-74
2022/11/09 01:06:32;;;;;;;9.10;2.50;;;10.90;99.90;;;;;;5018085;28;20066;-75
2022/11/09 01:08:57;;;;;;;6.40;2.23;;;11.00;99.90;;;;;;5017232;28;20067;-75
2022/11/09 01:11:23;;;;;;;9.37;2.23;;;11.00;99.90;;;;;;5039949;28;20191;-75
2022/11/09 01:13:50;;;;;;;6.67;1.73;;;11.10;99.90;;;;;;5049354;28;20075;-75
2022/11/09 01:16:19;;;;;;;6.40;2.00;;;11.10;99.90;;;;;;5061459;28;20287;-75
2022/11/09 01:18:45;;;;;;;10.97;2.20;;;11.20;99.90;;;;;;5054591;28;20290;-75
2022/11/09 01:21:14;;;;;;;7.63;1.60;;;11.20;99.90;;;;;;5057124;28;20782;-75
2022/11/09 01:23:41;;;;;;;6.97;1.60;;;11.20;99.90;;;;;;5049999;28;20286;-75
2022/11/09 01:26:09;;;;;;;6.23;1.47;;;11.30;99.90;;;;;;5044920;28;20300;-75
2022/11/09 01:28:36;;;;;;;10.37;1.97;;;11.30;99.90;;;;;;5044175;28;20283;-75
2022/11/09 01:31:04;;;;;;;6.60;1.77;;;11.30;99.90;;;;;;5050518;28;20290;-75
2022/11/09 01:33:30;;;;;;;6.70;1.20;;;11.30;99.90;;;;;;5049498;28;20698;-75
2022/11/09 01:36:01;;;;;;;6.57;1.47;;;11.30;99.90;;;;;;5060980;28;20333;-75
2022/11/09 01:38:27;;;;;;;3.90;2.00;;;11.30;99.90;;;;;;5048713;28;20048;-75
2022/11/09 01:40:52;;;;;;;5.87;1.90;;;11.30;99.90;;;;;;5041162;28;20299;-75
2022/11/09 01:43:21;;;;;;;6.70;1.90;;;11.30;99.90;;;;;;5044497;28;20037;-75
2022/11/09 01:46:04;;;;;;;9.23;2.10;;;11.30;99.90;;;;;;5061563;28;20135;-75
2022/11/09 01:48:44;;;;;;;9.57;2.17;;;11.40;99.90;;;;;;5056923;28;20276;-75
2022/11/09 01:51:18;;;;;;;7.40;2.03;;;11.40;99.90;;;;;;5076621;28;20279;-74
2022/11/09 01:53:48;;;;;;;7.73;2.00;;;11.30;99.90;;;;;;5037652;28;20644;-75
2022/11/09 01:56:15;;;;;;;7.80;2.17;;;11.40;99.90;;;;;;5066407;28;20282;-75
2022/11/09 01:58:49;;;;;;;7.27;1.73;;;11.40;99.90;;;;;;5060199;28;20383;-75
2022/11/09 02:01:16;;;;;;;6.47;2.30;;;11.40;99.90;;;;;;5058359;28;20310;-75
2022/11/09 02:03:49;;;;;;;10.90;2.33;;;11.40;99.90;;;;;;5062464;28;20279;-75
2022/11/09 02:06:18;;;;;;;10.73;2.37;;;11.30;99.90;;;;;;5066640;28;20698;-75
2022/11/09 02:08:45;;;;;;;9.67;2.33;;;11.30;99.90;;;;;;5048350;28;20840;-75
2022/11/09 02:11:13;;;;;;;9.10;2.60;;;11.20;99.90;;;;;;5039610;28;20809;-75
2022/11/09 02:13:47;;;;;;;11.23;2.70;;;11.10;99.90;;;;;;5039871;28;20774;-75
2022/11/09 02:16:14;;;;;;;8.38;2.40;;;11.00;99.90;;;;;;5054801;28;20290;-75
2022/11/09 02:19:01;;;;;;;8.30;2.60;;;11.00;99.90;;;;;;5022524;28;20041;-75
2022/11/09 02:21:29;;;;;;;7.53;3.10;;;10.90;99.90;;;;;;5045797;28;20279;-75
2022/11/09 02:23:56;;;;;;;8.07;2.93;;;10.80;99.90;;;;;;5065117;28;20294;-75
2022/11/09 02:26:35;;;;;;;9.60;2.20;;;10.80;99.90;;;;;;5065835;28;20283;-75
2022/11/09 02:29:04;;;;;;;11.23;2.50;;;10.70;99.90;;;;;;5057254;28;20377;-75
2022/11/09 02:31:35;;;;;;;11.10;2.30;;;10.70;99.90;;;;;;5066057;28;20634;-74
2022/11/09 02:34:15;;;;;;;10.47;2.40;;;10.70;99.90;;;;;;5043205;28;20684;-74
2022/11/09 02:36:42;;;;;;;11.27;2.30;;;10.70;99.90;;;;;;5053028;28;20287;-74
2022/11/09 02:39:09;;;;;;;10.03;2.00;;;10.70;99.90;;;;;;5038519;28;20507;-74
2022/11/09 02:41:46;;;;;;;8.33;2.30;;;10.70;99.90;;;;;;5057627;28;20714;-74
2022/11/09 02:44:14;;;;;;;8.07;1.73;;;10.70;99.90;;;;;;5038181;28;20306;-74
2022/11/09 02:46:41;;;;;;;8.83;1.30;;;10.70;99.90;;;;;;5057950;28;20719;-75
2022/11/09 02:49:06;;;;;;;11.17;1.60;;;10.80;99.90;;;;;;5031609;28;20743;-75
2022/11/09 02:51:32;;;;;;;10.07;2.00;;;10.80;99.90;;;;;;5039011;28;20279;-75
2022/11/09 02:53:58;;;;;;;13.10;2.40;;;10.80;99.90;;;;;;5020746;28;20512;-75
2022/11/09 02:56:24;;;;;;;7.90;1.43;;;10.90;99.90;;;;;;5045447;28;20482;-75
2022/11/09 02:58:49;;;;;;;9.43;2.13;;;10.90;99.90;;;;;;5054337;28;20040;-75
2022/11/09 03:01:15;;;;;;;11.77;1.80;;;11.00;99.90;;;;;;5031553;28;20076;-75
2022/11/09 03:03:41;;;;;;;12.17;2.23;;;11.00;99.90;;;;;;5055493;28;20063;-75
2022/11/09 03:06:07;;;;;;;10.90;1.90;;;11.00;99.90;;;;;;5044827;28;20051;-75
2022/11/09 03:08:32;;;;;;;7.87;1.30;;;10.90;99.90;;;;;;5059184;28;20047;-75
2022/11/09 03:10:59;;;;;;;10.87;1.73;;;10.90;99.90;;;;;;5040798;28;20049;-75
2022/11/09 03:13:25;;;;;;;14.97;2.20;;;10.90;99.90;;;;;;5058915;28;21322;-75
2022/11/09 03:15:50;;;;;;;11.40;1.90;;;10.90;99.90;;;;;;5039664;28;20413;-75
2022/11/09 03:18:16;;;;;;;6.90;1.40;;;10.90;99.90;;;;;;5024047;28;20048;-74
2022/11/09 03:20:42;;;;;;;13.27;1.40;;;11.00;99.90;;;;;;5063615;28;20263;-74
2022/11/09 03:23:09;;;;;;;10.83;1.57;;;11.00;99.90;;;;;;5044045;28;20504;-74
2022/11/09 03:25:36;;;;;;;9.23;1.53;;;11.00;99.90;;;;;;5025389;28;20329;-74
2022/11/09 03:28:05;;;;;;;9.13;1.50;;;11.00;99.90;;;;;;5059881;28;20322;-74
2022/11/09 03:30:32;;;;;;;9.73;1.97;;;11.00;99.90;;;;;;5059928;28;20310;-74
2022/11/09 03:33:04;;;;;;;10.77;1.60;;;11.00;99.90;;;;;;5059087;28;20343;-74
2022/11/09 03:35:30;;;;;;;11.97;1.60;;;11.00;99.90;;;;;;5055925;28;20379;-74
2022/11/09 03:37:55;;;;;;;12.30;1.93;;;10.90;99.90;;;;;;5026738;28;20370;-74
2022/11/09 03:40:21;;;;;;;9.27;1.50;;;10.90;99.90;;;;;;5046801;28;20052;-75
2022/11/09 03:42:48;;;;;;;7.30;1.43;;;10.90;99.90;;;;;;5042326;28;20048;-75
2022/11/09 03:45:15;;;;;;;11.03;1.73;;;10.90;99.90;;;;;;5055454;28;20045;-75
2022/11/09 03:47:42;;;;;;;12.00;2.10;;;10.90;99.90;;;;;;5029675;28;20337;-74
2022/11/09 03:50:08;;;;;;;9.80;1.30;;;10.80;99.90;;;;;;5037916;28;20279;-74
2022/11/09 03:52:34;;;;;;;9.37;1.63;;;10.80;99.90;;;;;;5037096;28;20674;-74
2022/11/09 03:55:00;;;;;;;13.13;2.13;;;10.80;99.90;;;;;;5056669;28;20280;-75
2022/11/09 03:57:26;;;;;;;8.73;1.63;;;10.80;99.90;;;;;;5057686;28;20293;-75
2022/11/09 03:59:51;;;;;;;11.73;1.73;;;10.80;99.90;;;;;;5041894;28;20040;-74
2022/11/09 04:02:17;;;;;;;12.77;1.93;;;10.80;99.90;;;;;;5029998;28;20166;-74
2022/11/09 04:04:43;;;;;;;10.67;2.10;;;10.90;99.90;;;;;;5052141;28;20120;-74
2022/11/09 04:07:12;;;;;;;10.53;1.80;;;11.00;99.90;;;;;;5040348;28;20040;-75
2022/11/09 04:09:38;;;;;;;13.33;1.70;;;11.10;99.90;;;;;;5059191;28;20145;-74
2022/11/09 04:12:04;;;;;;;11.73;1.63;;;11.10;99.90;;;;;;5045746;28;20365;-74
2022/11/09 04:14:29;;;;;;;16.23;2.47;;;11.10;99.90;;;;;;5026077;28;20044;-75
2022/11/09 04:16:55;;;;;;;12.23;1.70;;;11.10;99.90;;;;;;5042161;28;20357;-74
2022/11/09 04:19:21;;;;;;;7.60;1.77;;;11.20;99.90;;;;;;5039338;28;20044;-75
2022/11/09 04:21:47;;;;;;;12.93;1.60;;;11.20;99.90;;;;;;5058437;28;20155;-74
2022/11/09 04:24:13;;;;;;;12.53;1.70;;;11.20;99.90;;;;;;5046796;28;20352;-75
2022/11/09 04:26:39;;;;;;;10.30;1.77;;;11.20;99.90;;;;;;5063412;28;20283;-74
2022/11/09 04:29:05;;;;;;;9.83;1.70;;;11.20;99.90;;;;;;5025490;28;20060;-75
2022/11/09 04:31:31;;;;;;;11.53;2.00;;;11.20;99.90;;;;;;5046793;28;20051;-75
2022/11/09 04:33:56;;;;;;;11.47;1.83;;;11.10;99.90;;;;;;5041289;28;20275;-74
2022/11/09 04:36:22;;;;;;;10.00;1.40;;;11.10;99.90;;;;;;5023321;28;20424;-74
2022/11/09 04:38:48;;;;;;;14.57;2.00;;;11.10;99.90;;;;;;5042512;28;20041;-74
2022/11/09 04:41:14;;;;;;;12.63;2.40;;;11.10;99.90;;;;;;5039233;28;20102;-74
2022/11/09 04:43:40;;;;;;;11.47;1.90;;;11.10;99.90;;;;;;5063355;28;20043;-74
2022/11/09 04:46:05;;;;;;;7.67;2.13;;;11.20;99.90;;;;;;5023779;28;20055;-75
2022/11/09 04:48:31;;;;;;;7.87;2.00;;;11.20;99.90;;;;;;5041091;28;20471;-74
2022/11/09 04:51:02;;;;;;;11.87;1.73;;;11.20;99.90;;;;;;5044970;28;20116;-74
2022/11/09 04:53:28;;;;;;;10.50;1.50;;;11.20;99.90;;;;;;5045126;28;20276;-74
2022/11/09 04:55:54;;;;;;;15.47;2.27;;;11.20;99.90;;;;;;5045594;28;20298;-74
2022/11/09 04:58:20;;;;;;;7.97;1.70;;;11.20;99.90;;;;;;5039272;28;20340;-74
2022/11/09 05:00:46;;;;;;;10.77;1.90;;;11.20;99.90;;;;;;5022200;28;20287;-74
2022/11/09 05:03:12;;;;;;;7.90;1.40;;;11.20;99.90;;;;;;5013090;28;20357;-75
2022/11/09 05:05:38;;;;;;;10.23;1.87;;;11.20;99.90;;;;;;5022509;28;20044;-74
2022/11/09 05:08:05;;;;;;;12.67;1.87;;;11.20;99.90;;;;;;5028438;28;20087;-74
2022/11/09 05:10:31;;;;;;;10.00;2.33;;;11.30;99.90;;;;;;5057252;28;20310;-74
2022/11/09 05:12:59;;;;;;;13.83;1.97;;;11.30;99.90;;;;;;5057881;28;20298;-74
2022/11/09 05:15:25;;;;;;;7.50;1.50;;;11.30;99.90;;;;;;5039141;28;20694;-74
2022/11/09 05:17:51;;;;;;;11.17;1.83;;;11.20;99.90;;;;;;5052822;28;20295;-74
2022/11/09 05:20:16;;;;;;;10.90;1.50;;;11.20;99.90;;;;;;5063275;28;20296;-75
2022/11/09 05:25:26;;;;;;;10.83;2.40;;;11.10;99.90;;;;;;5035736;28;20049;-75
2022/11/09 05:27:52;;;;;;;10.67;2.00;;;11.10;99.90;;;;;;5057174;28;20298;-74
2022/11/09 05:30:18;;;;;;;13.27;2.07;;;11.00;99.90;;;;;;5028185;28;20048;-74
2022/11/09 05:32:44;;;;;;;9.50;1.70;;;11.00;99.90;;;;;;5042453;28;20434;-75
2022/11/09 05:35:10;;;;;;;10.57;1.80;;;11.00;99.90;;;;;;5028264;28;20044;-75
2022/11/09 05:37:38;;;;;;;13.57;1.77;;;10.90;99.90;;;;;;5024310;28;20068;-75
2022/11/09 05:40:05;;;;;;;13.83;1.90;;;10.90;99.90;;;;;;5029107;28;20052;-75
2022/11/09 05:42:31;;;;;;;13.13;2.03;;;10.80;99.90;;;;;;5045829;28;20317;-75
2022/11/09 05:44:56;;;;;;;13.77;1.87;;;10.80;99.90;;;;;;5043758;28;20894;-74
2022/11/09 05:47:22;;;;;;;11.13;2.20;;;10.80;99.90;;;;;;5018313;28;20120;-74
2022/11/09 05:49:48;;;;;;;12.20;2.57;;;10.80;99.90;;;;;;5026381;28;20040;-74
2022/11/09 05:52:14;;;;;;;9.33;2.43;;;10.70;99.90;;;;;;5045002;28;20041;-74
2022/11/09 05:54:39;;;;;;;10.17;2.13;;;10.70;99.90;;;;;;5040413;28;20044;-75
2022/11/09 05:57:05;;;;;;;15.23;2.10;;;10.70;99.90;;;;;;5044547;28;20044;-74
2022/11/09 05:59:31;;;;;;;7.87;2.07;;;10.60;99.90;;;;;;5043549;28;20055;-74
2022/11/09 06:01:57;;;;;;;8.20;1.57;;;10.60;99.90;;;;;;5040754;28;20052;-74
2022/11/09 06:04:22;;;;;;;9.90;1.60;;;10.60;99.90;;;;;;5055211;28;20111;-75
2022/11/09 06:06:48;;;;;;;8.20;1.70;;;10.60;99.90;;;;;;5043515;28;20377;-75
2022/11/09 06:09:14;;;;;;;8.00;1.90;;;10.60;99.90;;;;;;5049053;28;20132;-75
2022/11/09 06:11:39;;;;;;;9.20;1.67;;;10.60;99.90;;;;;;5031740;28;20045;-74
2022/11/09 06:14:05;;;;;;;10.13;1.67;;;10.60;99.90;;;;;;5041195;28;20037;-74
2022/11/09 06:16:31;;;;;;;6.77;1.83;;;10.60;99.90;;;;;;5037963;28;20044;-74
2022/11/09 06:18:56;;;;;;;11.20;1.73;;;10.60;99.90;;;;;;5042877;28;20634;-74
2022/11/09 06:21:22;;;;;;;6.37;1.57;;;10.60;99.90;;;;;;5023824;28;20083;-74
2022/11/09 06:23:48;;;;;;;7.50;1.33;;;10.50;99.90;;;;;;5041492;28;20112;-75
2022/11/09 06:26:14;;;;;;;6.37;1.20;;;10.50;99.90;;;;;;5032077;28;20040;-74
2022/11/09 06:28:41;;;;;;;9.20;1.77;;;10.50;99.90;;;;;;5047615;28;20064;-74
2022/11/09 06:31:11;;;;;;;7.97;1.20;;;10.50;99.90;;;;;;5064471;28;20487;-74
2022/11/09 06:33:36;;;;;;;9.97;1.80;;;10.40;99.90;;;;;;5049164;28;21115;-74
2022/11/09 06:36:03;;;;;;;7.97;1.30;;;10.40;99.90;;;;;;5060032;28;20279;-74
2022/11/09 06:38:29;;;;;;;8.83;1.20;;;10.40;99.90;;;;;;5048099;28;20044;-74
2022/11/09 06:40:57;;;;;;;10.40;1.60;;;10.40;99.90;;;;;;5047045;28;20286;-74
2022/11/09 06:43:23;;;;;;;9.33;2.03;;;10.30;99.90;;;;;;5059016;28;20282;-75
2022/11/09 06:45:50;;;;;;;9.50;2.20;;;10.30;99.90;;;;;;5058905;28;20801;-74
2022/11/09 06:48:16;;;;;;;9.13;1.60;;;10.30;99.90;;;;;;5047984;28;20286;-75
2022/11/09 06:50:41;;;;;;;13.53;1.80;;;10.30;99.90;;;;;;5042707;28;20635;-74
2022/11/09 06:53:11;;;;;;;12.97;2.20;;;10.20;99.90;;;;;;5017415;28;20279;-74
2022/11/09 06:55:38;;;;;;;8.37;1.63;;;10.20;99.90;;;;;;5056237;28;20040;-74
2022/11/09 06:58:09;;;;;;;8.77;1.20;;;10.20;99.90;;;;;;5046380;28;20389;-74
2022/11/09 07:00:35;;;;;;;6.00;1.17;;;10.20;99.90;;;;;;5045456;28;20279;-74
2022/11/09 07:03:02;;;;;;;6.57;2.20;;;10.20;99.90;;;;;;5064711;28;20653;-74
2022/11/09 07:05:27;;;;;;;13.97;1.87;;;10.20;99.90;;;;;;5059121;28;20303;-74
2022/11/09 07:07:53;;;;;;;11.73;2.23;;;10.20;99.90;;;;;;5031523;28;20340;-74
2022/11/09 07:10:19;;;;;;;7.87;1.60;;;10.20;99.90;;;;;;5031731;28;20093;-74
2022/11/09 07:12:45;;;;;;;12.23;1.80;;;10.20;99.90;;;;;;5061893;28;20053;-74
2022/11/09 07:15:11;;;;;;;5.83;1.27;;;10.20;99.90;;;;;;5039191;28;20490;-74
2022/11/09 07:17:38;;;;;;;7.93;1.80;;;10.20;99.90;;;;;;5044613;28;20045;-74
2022/11/09 07:20:08;;;;;;;9.43;1.33;;;10.20;99.90;;;;;;5037397;28;20287;-74
2022/11/09 07:22:38;;;;;;;8.40;1.37;;;10.20;99.90;;;;;;5057114;28;20323;-74
2022/11/09 07:25:06;;;;;;;8.87;1.50;;;10.20;99.90;;;;;;5063458;28;20432;-74
2022/11/09 07:27:31;;;;;;;7.40;1.50;;;10.20;99.90;;;;;;5035134;28;20327;-74
2022/11/09 07:29:57;;;;;;;11.13;1.70;;;10.20;99.90;;;;;;5063632;28;20360;-74
2022/11/09 07:32:23;;;;;;;8.43;1.60;;;10.30;99.90;;;;;;5042296;28;20041;-74
2022/11/09 07:34:49;;;;;;;11.37;1.73;;;10.30;99.90;;;;;;5034906;28;20045;-74
2022/11/09 07:37:14;;;;;;;13.53;2.00;;;10.30;99.90;;;;;;5037121;28;20095;-74
2022/11/09 07:39:40;;;;;;;10.57;1.60;;;10.40;99.90;;;;;;5034665;28;20071;-74
2022/11/09 07:42:06;;;;;;;10.33;1.83;;;10.40;99.90;;;;;;5042039;28;20477;-74
2022/11/09 07:44:31;;;;;;;8.40;1.93;;;10.40;99.90;;;;;;5052889;28;20557;-74
2022/11/09 07:46:57;;;;;;;9.37;1.37;;;10.50;99.90;;;;;;5029077;28;20047;-74
2022/11/09 07:49:23;;;;;;;7.00;1.70;;;10.60;99.90;;;;;;5042019;28;20575;-74
2022/11/09 07:51:48;;;;;;;11.30;1.57;;;10.60;99.90;;;;;;5033676;28;20409;-74
2022/11/09 07:54:14;;;;;;;10.87;1.50;;;10.70;99.90;;;;;;5039693;28;20664;-75
2022/11/09 07:56:40;;;;;;;11.77;2.00;;;10.80;99.90;;;;;;5027475;28;20070;-74
2022/11/09 07:59:06;;;;;;;13.03;2.07;;;10.90;99.90;;;;;;5060022;28;20442;-74
2022/11/09 08:01:31;;;;;;;11.73;1.60;;;10.90;99.90;;;;;;5039321;28;20049;-74
2022/11/09 08:03:57;;;;;;;9.93;1.30;;;11.00;99.90;;;;;;5040055;28;20036;-74
2022/11/09 08:06:26;;;;;;;8.90;2.00;;;11.00;99.90;;;;;;5023191;28;20155;-75
2022/11/09 08:08:56;;;;;;;10.17;1.70;;;11.00;99.90;;;;;;5026661;28;20129;-75
2022/11/09 08:11:23;;;;;;;10.80;1.80;;;11.10;99.90;;;;;;5054428;28;20283;-75
2022/11/09 08:13:49;;;;;;;9.47;1.83;;;11.00;99.90;;;;;;5026853;28;20325;-74
2022/11/09 08:16:15;;;;;;;13.47;1.53;;;11.00;99.90;;;;;;5038668;28;20353;-74
2022/11/09 08:18:40;;;;;;;12.97;2.00;;;11.00;99.90;;;;;;5038668;28;20217;-74
2022/11/09 08:21:06;;;;;;;12.70;1.87;;;11.10;99.90;;;;;;5020900;28;20087;-75
2022/11/09 08:23:32;;;;;;;13.73;1.90;;;11.10;99.90;;;;;;5062486;28;20055;-74
2022/11/09 08:26:04;;;;;;;9.53;1.77;;;11.20;99.90;;;;;;5045908;28;20128;-75
2022/11/09 08:28:32;;;;;;;18.43;2.47;;;11.30;99.90;;;;;;5047030;28;20083;-75
2022/11/09 08:31:00;;;;;;;10.10;1.70;;;11.50;99.90;;;;;;5030972;28;20323;-75
2022/11/09 08:33:28;;;;;;;10.60;1.57;;;11.70;99.90;;;;;;5040066;28;20286;-74
2022/11/09 08:35:54;;;;;;;13.10;2.43;;;11.90;99.90;;;;;;5058458;28;20635;-74
2022/11/09 08:38:21;;;;;;;10.93;1.87;;;12.00;99.90;;;;;;5045898;28;20847;-75
2022/11/09 08:40:46;;;;;;;9.13;1.97;;;12.00;99.90;;;;;;5042134;28;20314;-74
2022/11/09 08:43:13;;;;;;;10.30;1.87;;;12.10;99.90;;;;;;5057182;28;20303;-74
2022/11/09 08:45:39;;;;;;;11.80;1.63;;;12.10;99.90;;;;;;5058009;28;20044;-74
2022/11/09 08:48:06;;;;;;;7.90;1.33;;;12.20;99.90;;;;;;5062986;28;20306;-75
2022/11/09 08:50:35;;;;;;;8.93;2.20;;;12.20;99.90;;;;;;5054430;28;20279;-75
2022/11/09 08:53:02;;;;;;;11.10;2.00;;;12.30;99.90;;;;;;5042130;28;20642;-75
2022/11/09 08:55:28;;;;;;;7.47;2.00;;;12.30;99.90;;;;;;5043632;28;20337;-75
2022/11/09 08:57:59;;;;;;;10.40;2.17;;;12.30;99.90;;;;;;5028820;28;20366;-74
2022/11/09 09:00:26;;;;;;;7.03;1.60;;;12.20;99.90;;;;;;5045541;28;20371;-74
2022/11/09 09:02:52;;;;;;;12.03;2.07;;;12.30;99.90;;;;;;5050197;28;20286;-74
2022/11/09 09:05:18;;;;;;;8.87;1.40;;;12.30;99.90;;;;;;5036580;28;20306;-74
2022/11/09 09:07:43;;;;;;;8.83;1.43;;;12.40;99.90;;;;;;5076225;28;20631;-74
2022/11/09 09:10:10;;;;;;;10.57;1.70;;;12.40;99.90;;;;;;5030338;28;20360;-75
2022/11/09 09:12:36;;;;;;;11.27;2.43;;;12.50;99.90;;;;;;5046014;28;20079;-74
2022/11/09 09:15:02;;;;;;;11.13;2.43;;;12.50;99.90;;;;;;5041211;28;20426;-74
2022/11/09 09:17:28;;;;;;;10.23;2.33;;;12.50;99.90;;;;;;5045255;28;20306;-75
2022/11/09 09:19:54;;;;;;;6.37;1.50;;;12.40;99.90;;;;;;5043165;28;20291;-74
2022/11/09 09:22:19;;;;;;;10.10;2.07;;;12.40;99.90;;;;;;5028482;28;20091;-74
2022/11/09 09:24:46;;;;;;;10.33;1.50;;;12.30;99.90;;;;;;5028223;28;20045;-74
2022/11/09 09:27:11;;;;;;;10.80;1.73;;;12.30;99.90;;;;;;5014451;28;20152;-74
2022/11/09 09:29:37;;;;;;;7.70;1.97;;;12.30;99.90;;;;;;5058926;28;20701;-74
2022/11/09 09:32:04;;;;;;;8.40;1.80;;;12.30;99.90;;;;;;5024512;28;20052;-74
2022/11/09 09:34:30;;;;;;;10.03;1.90;;;12.30;99.90;;;;;;5046971;28;20040;-74
2022/11/09 09:36:56;;;;;;;11.80;2.00;;;12.30;99.90;;;;;;5041513;28;20294;-74
2022/11/09 09:39:21;;;;;;;10.67;1.93;;;12.40;99.90;;;;;;5058829;28;20037;-74
2022/11/09 09:41:54;;;;;;;12.53;2.20;;;12.40;99.90;;;;;;5029177;28;20048;-74
2022/11/09 09:44:27;;;;;;;12.10;2.20;;;12.40;99.90;;;;;;5066117;28;20365;-74
2022/11/09 09:46:58;;;;;;;8.83;2.17;;;12.40;99.90;;;;;;5046385;28;20283;-74
2022/11/09 09:49:30;;;;;;;13.40;2.13;;;12.40;99.90;;;;;;5065560;28;20291;-74
2022/11/09 09:52:18;;;;;;;11.97;2.20;;;12.50;99.90;;;;;;5059358;28;20383;-74
2022/11/09 09:54:55;;;;;;;10.50;2.47;;;12.50;99.90;;;;;;5059101;28;21258;-75
2022/11/09 09:57:24;;;;;;;7.77;2.43;;;12.50;99.90;;;;;;5015833;28;20681;-75
2022/11/09 09:59:53;;;;;;;11.50;2.67;;;12.60;99.90;;;;;;5024261;28;20275;-74
2022/11/09 10:02:28;;;;;;;11.73;2.50;;;12.60;99.90;;;;;;5045878;28;20281;-74
2022/11/09 10:04:57;;;;;;;10.00;2.30;;;12.80;99.90;;;;;;5059001;28;20300;-74
2022/11/09 10:07:31;;;;;;;12.67;3.13;;;12.90;99.90;;;;;;5045150;28;20036;-74
2022/11/09 10:10:30;;;;;;;11.90;3.17;;;13.00;99.90;;;;;;5037207;28;20775;-74
2022/11/09 10:13:11;;;;;;;14.00;2.60;;;13.10;99.90;;;;;;5058075;28;20662;-74
2022/11/09 10:15:54;;;;;;;10.93;2.43;;;13.10;99.90;;;;;;5053920;28;20294;-74
2022/11/09 10:18:35;;;;;;;12.30;3.33;;;13.00;99.90;;;;;;5054911;28;20298;-74
2022/11/09 10:21:16;;;;;;;13.83;3.57;;;12.90;99.90;;;;;;5039487;28;20283;-74
2022/11/09 10:23:51;;;;;;;15.53;3.43;;;12.90;99.90;;;;;;5044165;28;20279;-73
2022/11/09 10:26:22;;;;;;;12.77;4.22;;;12.80;99.90;;;;;;5055101;28;20303;-73
2022/11/09 10:29:01;;;;;;;13.07;3.40;;;12.80;99.90;;;;;;5054961;28;20057;-74
2022/11/09 10:31:32;;;;;;;8.30;3.60;;;12.90;99.90;;;;;;5053513;28;20622;-74
2022/11/09 10:34:05;;;;;;;10.30;3.10;;;13.10;99.90;;;;;;5057956;28;20506;-74
2022/11/09 10:36:51;;;;;;;12.03;3.07;;;13.20;99.90;;;;;;5035026;28;20350;-74
2022/11/09 10:39:17;;;;;;;13.10;3.20;;;13.30;99.90;;;;;;5054849;28;20328;-74
2022/11/09 10:41:47;;;;;;;9.97;2.80;;;13.30;99.90;;;;;;5037151;28;20279;-74
2022/11/09 10:44:15;;;;;;;10.10;3.13;;;13.30;99.90;;;;;;5038769;28;20275;-74
2022/11/09 10:47:04;;;;;;;13.17;2.93;;;13.20;99.90;;;;;;5039923;28;20340;-74
2022/11/09 10:49:30;;;;;;;7.60;3.00;;;13.30;99.90;;;;;;5048817;28;20691;-74
2022/11/09 10:51:56;;;;;;;14.10;3.17;;;13.30;99.90;;;;;;5038611;28;20378;-74
2022/11/09 10:54:27;;;;;;;15.13;3.37;;;13.40;99.90;;;;;;5038552;28;20437;-74
2022/11/09 10:57:15;;;;;;;6.57;2.63;;;13.40;99.90;;;;;;5052900;28;20548;-73
2022/11/09 11:00:03;;;;;;;11.53;3.00;;;13.40;99.90;;;;;;5038913;28;20639;-73
2022/11/09 11:02:41;;;;;;;9.47;2.63;;;13.50;99.90;;;;;;5058170;28;20770;-74
2022/11/09 11:05:20;;;;;;;9.83;3.30;;;13.50;99.90;;;;;;5048311;28;20299;-73
2022/11/09 11:07:45;;;;;;;11.30;3.50;;;13.40;99.90;;;;;;5059911;28;20682;-74
2022/11/09 11:10:21;;;;;;;10.70;2.87;;;13.30;99.90;;;;;;5060551;28;20279;-74
2022/11/09 11:12:58;;;;;;;12.47;2.97;;;13.20;99.90;;;;;;5042574;28;20303;-74
2022/11/09 11:15:31;;;;;;;14.27;2.83;;;13.10;99.90;;;;;;5058307;28;20293;-74
2022/11/09 11:18:21;;;;;;;10.27;3.03;;;13.00;99.90;;;;;;5038865;28;20282;-74
2022/11/09 11:21:02;;;;;;;9.43;2.93;;;13.00;99.90;;;;;;5057231;28;20390;-74
2022/11/09 11:23:28;;;;;;;14.53;3.57;;;12.90;99.90;;;;;;5042211;28;20823;-74
2022/11/09 11:25:56;;;;;;;15.70;3.23;;;13.00;99.90;;;;;;5040776;28;20303;-74
2022/11/09 11:28:31;;;;;;;11.10;3.73;;;13.00;99.90;;;;;;5036678;28;20455;-74
2022/11/09 11:30:57;;;;;;;12.50;2.95;;;13.00;99.90;;;;;;5057434;28;20321;-74
2022/11/09 11:33:23;;;;;;;13.27;3.07;;;13.00;99.90;;;;;;5033292;28;20190;-74
2022/11/09 11:35:57;;;;;;;14.93;3.93;;;12.90;99.90;;;;;;5050329;28;20554;-73
2022/11/09 11:38:23;;;;;;;13.43;3.70;;;12.90;99.90;;;;;;5043141;28;20606;-73
2022/11/09 11:41:24;;;;;;;12.77;3.23;;;12.70;99.90;;;;;;5062613;28;20139;-73
2022/11/09 11:44:01;;;;;;;14.30;4.13;;;12.40;99.90;;;;;;5064151;28;20125;-74
2022/11/09 11:46:57;;;;;;;13.87;3.53;;;12.30;99.90;;;;;;5059872;28;20302;-75
2022/11/09 11:49:41;;;;;;;13.75;3.60;;;12.10;99.90;;;;;;5062991;28;20298;-74
2022/11/09 11:52:16;;;;;;;16.57;4.30;;;12.00;99.90;;;;;;5055820;28;20048;-73
2022/11/09 11:54:56;;;;;;;13.98;4.00;;;12.00;99.90;;;;;;5059458;28;20310;-73
2022/11/09 11:57:41;;;;;;;13.37;4.13;;;11.90;99.90;;;;;;5056709;28;20191;-74
2022/11/09 12:00:14;;;;;;;9.13;3.70;;;11.80;99.90;;;;;;5057810;28;20278;-74
2022/11/09 12:03:00;;;;;;;16.53;4.60;;;11.70;99.90;;;;;;5074461;28;20037;-74
2022/11/09 12:05:50;;;;;;;12.80;3.97;;;11.70;99.90;;;;;;5040451;28;20814;-74
2022/11/09 12:09:01;;;;;;;16.77;4.13;;;11.60;99.90;;;;;;5056670;28;20291;-74
2022/11/09 12:11:48;;;;;;;13.37;3.70;;;11.50;99.90;;;;;;5057738;28;20604;-75
2022/11/09 12:14:40;;;;;;;14.90;4.33;;;11.50;99.90;;;;;;5054459;28;20271;-74
2022/11/09 12:17:38;;;;;;;2.70;0.83;;;11.50;99.90;;;;;;5057636;28;20794;-76
2022/11/09 12:20:19;;;;;;;4.23;0.87;;;11.10;99.90;;;;;;5059073;28;20638;-75
2022/11/09 12:23:06;;;;;;;1.17;0.40;;;10.90;99.90;;;;;;5060034;28;20271;-75
2022/11/09 12:25:42;;;;;;;1.53;0.30;;;10.70;99.90;;;;;;5061848;28;20791;-75
2022/11/09 12:28:33;;;;;;;2.50;0.20;;;10.60;99.90;;;;;;5059944;28;20827;-74
2022/11/09 12:31:11;;;;;;;2.50;0.50;;;10.50;99.90;;;;;;5060161;28;20274;-76
2022/11/09 12:34:18;;;;;;;2.07;0.30;;;10.50;99.90;;;;;;5058926;28;20614;-75
2022/11/09 12:36:55;;;;;;;1.77;0.20;;;10.50;99.90;;;;;;5056807;28;20278;-75
2022/11/09 12:39:35;;;;;;;0.80;0.27;;;10.40;99.90;;;;;;5061155;28;20277;-75
2022/11/09 12:42:14;;;;;;;0.97;0.20;;;10.40;99.90;;;;;;5056177;28;20361;-74
2022/11/09 12:44:54;;;;;;;1.37;0.20;;;10.40;99.90;;;;;;5058244;28;20589;-75
2022/11/09 12:47:26;;;;;;;2.40;0.30;;;10.30;99.90;;;;;;5046773;28;20634;-74
2022/11/09 12:49:55;;;;;;;4.27;0.50;;;10.30;99.90;;;;;;5064089;28;20288;-75
2022/11/09 12:52:25;;;;;;;3.53;1.17;;;10.30;99.90;;;;;;5060190;28;20608;-74
2022/11/09 12:54:53;;;;;;;3.70;0.70;;;10.40;99.90;;;;;;5060736;28;20384;-74